createdAt,value
2018-06-22T00:00:48.824Z,1006.9
2018-06-22T00:01:51.139Z,1006.8
2018-06-22T00:02:53.176Z,1006.8
2018-06-22T00:03:55.195Z,1006.9
2018-06-22T00:04:57.232Z,1006.9
2018-06-22T00:05:59.577Z,1006.9
2018-06-22T00:07:02.002Z,1006.9
2018-06-22T00:08:04.334Z,1006.8
2018-06-22T00:09:06.366Z,1006.8
2018-06-22T00:10:08.396Z,1006.8
2018-06-22T00:11:10.425Z,1006.9
2018-06-22T00:12:12.735Z,1006.8
2018-06-22T00:13:14.774Z,1006.9
2018-06-22T00:14:17.087Z,1006.8
2018-06-22T00:15:19.119Z,1006.8
2018-06-22T00:16:21.449Z,1006.8
2018-06-22T00:17:23.479Z,1006.8
2018-06-22T00:18:25.514Z,1006.8
2018-06-22T00:19:27.539Z,1006.8
2018-06-22T00:20:29.568Z,1006.8
2018-06-22T00:21:31.606Z,1006.7
2018-06-22T00:22:33.627Z,1006.7
2018-06-22T00:23:35.666Z,1006.8
2018-06-22T00:24:37.700Z,1006.8
2018-06-22T00:25:40.011Z,1006.7
2018-06-22T00:26:42.040Z,1006.8
2018-06-22T00:27:44.078Z,1006.7
2018-06-22T00:28:46.107Z,1006.7
2018-06-22T00:29:48.147Z,1006.7
2018-06-22T00:30:50.173Z,1006.7
2018-06-22T00:31:52.492Z,1006.7
2018-06-22T00:32:54.521Z,1006.7
2018-06-22T00:33:56.551Z,1006.7
2018-06-22T00:34:58.583Z,1006.7
2018-06-22T00:36:00.617Z,1006.7
2018-06-22T00:37:03.246Z,1006.7
2018-06-22T00:38:05.270Z,1006.8
2018-06-22T00:39:07.296Z,1006.7
2018-06-22T00:40:09.326Z,1006.7
2018-06-22T00:41:11.359Z,1006.7
2018-06-22T00:42:13.396Z,1006.7
2018-06-22T00:43:15.718Z,1006.7
2018-06-22T00:44:17.743Z,1006.7
2018-06-22T00:45:20.079Z,1006.7
2018-06-22T00:46:22.111Z,1006.7
2018-06-22T00:47:24.151Z,1006.7
2018-06-22T00:48:26.468Z,1006.6
2018-06-22T00:49:28.499Z,1006.6
2018-06-22T00:50:30.914Z,1006.7
2018-06-22T00:51:32.938Z,1006.6
2018-06-22T00:52:34.970Z,1006.6
2018-06-22T00:53:37.008Z,1006.6
2018-06-22T00:54:39.031Z,1006.6
2018-06-22T00:55:41.089Z,1006.7
2018-06-22T00:56:43.410Z,1006.7
2018-06-22T00:57:45.438Z,1006.6
2018-06-22T00:58:47.779Z,1006.6
2018-06-22T00:59:49.801Z,1006.6
2018-06-22T01:00:52.119Z,1006.6
2018-06-22T01:01:54.453Z,1006.6
2018-06-22T01:02:56.474Z,1006.6
2018-06-22T01:03:58.825Z,1006.6
2018-06-22T01:05:01.146Z,1006.6
2018-06-22T01:06:03.194Z,1006.6
2018-06-22T01:07:05.233Z,1006.6
2018-06-22T01:08:07.261Z,1006.5
2018-06-22T01:09:09.676Z,1006.6
2018-06-22T01:10:11.708Z,1006.5
2018-06-22T01:11:13.736Z,1006.5
2018-06-22T01:12:15.774Z,1006.5
2018-06-22T01:13:17.803Z,1006.4
2018-06-22T01:14:19.837Z,1006.4
2018-06-22T01:15:22.244Z,1006.5
2018-06-22T01:16:24.665Z,1006.5
2018-06-22T01:17:26.705Z,1006.5
2018-06-22T01:18:28.729Z,1006.5
2018-06-22T01:19:31.152Z,1006.5
2018-06-22T01:20:33.572Z,1006.5
2018-06-22T01:21:35.600Z,1006.4
2018-06-22T01:22:37.634Z,1006.5
2018-06-22T01:23:39.943Z,1006.5
2018-06-22T01:24:41.990Z,1006.4
2018-06-22T01:25:44.021Z,1006.4
2018-06-22T01:26:46.389Z,1006.5
2018-06-22T01:27:48.424Z,1006.5
2018-06-22T01:28:50.452Z,1006.5
2018-06-22T01:29:52.480Z,1006.5
2018-06-22T01:30:54.895Z,1006.5
2018-06-22T01:31:56.933Z,1006.5
2018-06-22T01:32:58.970Z,1006.5
2018-06-22T01:34:00.989Z,1006.5
2018-06-22T01:35:03.691Z,1006.4
2018-06-22T01:36:05.732Z,1006.4
2018-06-22T01:37:08.151Z,1006.5
2018-06-22T01:38:10.176Z,1006.5
2018-06-22T01:39:12.212Z,1006.5
2018-06-22T01:40:14.522Z,1006.5
2018-06-22T01:41:16.558Z,1006.5
2018-06-22T01:42:18.579Z,1006.5
2018-06-22T01:43:20.622Z,1006.5
2018-06-22T01:44:22.952Z,1006.5
2018-06-22T01:45:24.976Z,1006.5
2018-06-22T01:46:27.016Z,1006.6
2018-06-22T01:47:29.042Z,1006.6
2018-06-22T01:48:31.363Z,1006.5
2018-06-22T01:49:33.387Z,1006.6
2018-06-22T01:50:35.439Z,1006.5
2018-06-22T01:51:37.470Z,1006.4
2018-06-22T01:52:39.496Z,1006.5
2018-06-22T01:53:41.850Z,1006.5
2018-06-22T01:54:43.881Z,1006.5
2018-06-22T01:55:45.909Z,1006.5
2018-06-22T01:56:47.953Z,1006.5
2018-06-22T01:57:49.968Z,1006.5
2018-06-22T01:58:52.285Z,1006.5
2018-06-22T01:59:54.334Z,1006.5
2018-06-22T02:00:56.363Z,1006.5
2018-06-22T02:01:58.396Z,1006.5
2018-06-22T02:03:00.427Z,1006.5
2018-06-22T02:04:02.754Z,1006.5
2018-06-22T02:05:04.785Z,1006.5
2018-06-22T02:06:06.811Z,1006.5
2018-06-22T02:07:08.890Z,1006.6
2018-06-22T02:08:10.876Z,1006.5
2018-06-22T02:09:12.908Z,1006.5
2018-06-22T02:10:15.304Z,1006.5
2018-06-22T02:11:17.343Z,1006.5
2018-06-22T02:12:19.383Z,1006.5
2018-06-22T02:13:21.416Z,1006.5
2018-06-22T02:14:23.449Z,1006.5
2018-06-22T02:15:25.493Z,1006.5
2018-06-22T02:16:27.516Z,1006.4
2018-06-22T02:17:29.547Z,1006.5
2018-06-22T02:18:31.583Z,1006.5
2018-06-22T02:19:33.611Z,1006.5
2018-06-22T02:20:35.938Z,1006.5
2018-06-22T02:21:37.967Z,1006.5
2018-06-22T02:22:40.008Z,1006.5
2018-06-22T02:23:42.033Z,1006.5
2018-06-22T02:24:44.054Z,1006.4
2018-06-22T02:25:46.149Z,1006.5
2018-06-22T02:26:48.126Z,1006.5
2018-06-22T02:27:50.153Z,1006.5
2018-06-22T02:28:52.187Z,1006.4
2018-06-22T02:29:54.215Z,1006.4
2018-06-22T02:30:56.925Z,1006.4
2018-06-22T02:32:00.335Z,1006.5
2018-06-22T02:33:02.361Z,1006.5
2018-06-22T02:34:04.682Z,1006.4
2018-06-22T02:35:06.716Z,1006.4
2018-06-22T02:36:08.753Z,1006.5
2018-06-22T02:37:10.785Z,1006.5
2018-06-22T02:38:12.807Z,1006.5
2018-06-22T02:39:14.839Z,1006.4
2018-06-22T02:40:16.882Z,1006.5
2018-06-22T02:41:19.306Z,1006.5
2018-06-22T02:42:21.727Z,1006.4
2018-06-22T02:43:24.426Z,1006.4
2018-06-22T02:44:27.123Z,1006.4
2018-06-22T02:45:29.533Z,1006.4
2018-06-22T02:46:31.560Z,1006.4
2018-06-22T02:47:33.601Z,1006.4
2018-06-22T02:48:35.928Z,1006.4
2018-06-22T02:49:44.368Z,1006.5
2018-06-22T02:50:46.644Z,1006.5
2018-06-22T02:51:48.936Z,1006.4
2018-06-22T02:52:52.118Z,1006.4
2018-06-22T02:53:55.060Z,1006.4
2018-06-22T02:54:57.287Z,1006.4
2018-06-22T02:55:59.276Z,1006.5
2018-06-22T02:57:02.057Z,1006.5
2018-06-22T02:58:04.061Z,1006.5
2018-06-22T02:59:06.365Z,1006.4
2018-06-22T03:00:11.420Z,1006.4
2018-06-22T03:01:15.432Z,1006.4
2018-06-22T03:02:17.437Z,1006.5
2018-06-22T03:03:22.491Z,1006.4
2018-06-22T03:04:24.515Z,1006.4
2018-06-22T03:05:26.814Z,1006.4
2018-06-22T03:06:28.820Z,1006.4
2018-06-22T03:07:30.811Z,1006.4
2018-06-22T03:08:32.814Z,1006.4
2018-06-22T03:09:36.673Z,1006.4
2018-06-22T03:10:38.667Z,1006.4
2018-06-22T03:11:42.315Z,1006.4
2018-06-22T03:12:47.787Z,1006.4
2018-06-22T03:13:50.119Z,1006.5
2018-06-22T03:14:55.175Z,1006.4
2018-06-22T03:15:57.175Z,1006.4
2018-06-22T03:17:02.212Z,1006.4
2018-06-22T03:18:04.761Z,1006.4
2018-06-22T03:19:07.370Z,1006.4
2018-06-22T03:20:09.779Z,1006.4
2018-06-22T03:21:12.209Z,1006.4
2018-06-22T03:22:14.245Z,1006.4
2018-06-22T03:23:16.279Z,1006.4
2018-06-22T03:24:18.888Z,1006.4
2018-06-22T03:25:20.903Z,1006.3
2018-06-22T03:26:22.899Z,1006.4
2018-06-22T03:27:24.925Z,1006.4
2018-06-22T03:28:26.954Z,1006.4
2018-06-22T03:29:28.938Z,1006.4
2018-06-22T03:30:32.401Z,1006.5
2018-06-22T03:31:35.380Z,1006.3
2018-06-22T03:32:37.364Z,1006.3
2018-06-22T03:33:39.364Z,1006.4
2018-06-22T03:34:41.396Z,1006.4
2018-06-22T03:35:43.412Z,1006.4
2018-06-22T03:36:45.419Z,1006.4
2018-06-22T03:37:47.433Z,1006.5
2018-06-22T03:38:49.437Z,1006.5
2018-06-22T03:39:51.415Z,1006.5
2018-06-22T03:40:53.420Z,1006.4
2018-06-22T03:41:55.439Z,1006.5
2018-06-22T03:42:57.432Z,1006.4
2018-06-22T03:43:59.462Z,1006.5
2018-06-22T03:45:01.484Z,1006.4
2018-06-22T03:46:03.910Z,1006.4
2018-06-22T03:47:06.219Z,1006.4
2018-06-22T03:48:08.254Z,1006.4
2018-06-22T03:49:10.283Z,1006.4
2018-06-22T03:50:12.320Z,1006.4
2018-06-22T03:51:14.671Z,1006.3
2018-06-22T03:52:16.706Z,1006.4
2018-06-22T03:53:19.033Z,1006.3
2018-06-22T03:54:21.075Z,1006.3
2018-06-22T03:55:23.103Z,1006.4
2018-06-22T03:56:25.134Z,1006.3
2018-06-22T03:57:27.474Z,1006.3
2018-06-22T03:58:29.517Z,1006.3
2018-06-22T03:59:31.544Z,1006.3
2018-06-22T04:00:33.571Z,1006.3
2018-06-22T04:01:35.895Z,1006.3
2018-06-22T04:02:37.918Z,1006.3
2018-06-22T04:03:39.961Z,1006.3
2018-06-22T04:04:41.988Z,1006.3
2018-06-22T04:05:44.023Z,1006.3
2018-06-22T04:06:46.049Z,1006.2
2018-06-22T04:07:48.082Z,1006.2
2018-06-22T04:08:50.112Z,1006.2
2018-06-22T04:09:52.423Z,1006.2
2018-06-22T04:10:54.473Z,1006.2
2018-06-22T04:11:56.787Z,1006.2
2018-06-22T04:12:58.826Z,1006.2
2018-06-22T04:14:01.139Z,1006.2
2018-06-22T04:15:03.175Z,1006.1
2018-06-22T04:16:05.209Z,1006.2
2018-06-22T04:17:07.246Z,1006.2
2018-06-22T04:18:09.290Z,1006.2
2018-06-22T04:19:11.611Z,1006.2
2018-06-22T04:20:13.639Z,1006.2
2018-06-22T04:21:15.671Z,1006.2
2018-06-22T04:22:17.712Z,1006.2
2018-06-22T04:23:20.317Z,1006.2
2018-06-22T04:24:22.382Z,1006.2
2018-06-22T04:25:25.097Z,1006.2
2018-06-22T04:26:27.128Z,1006.2
2018-06-22T04:27:29.155Z,1006.2
2018-06-22T04:28:31.195Z,1006.3
2018-06-22T04:29:33.501Z,1006.2
2018-06-22T04:30:35.539Z,1006.3
2018-06-22T04:31:37.871Z,1006.3
2018-06-22T04:32:39.901Z,1006.3
2018-06-22T04:33:41.930Z,1006.2
2018-06-22T04:34:44.264Z,1006.3
2018-06-22T04:35:46.300Z,1006.2
2018-06-22T04:36:48.322Z,1006.3
2018-06-22T04:37:50.747Z,1006.2
2018-06-22T04:38:52.777Z,1006.3
2018-06-22T04:39:54.804Z,1006.3
2018-06-22T04:40:56.833Z,1006.3
2018-06-22T04:41:58.862Z,1006.3
2018-06-22T04:43:00.896Z,1006.3
2018-06-22T04:44:02.923Z,1006.3
2018-06-22T04:45:04.956Z,1006.3
2018-06-22T04:46:06.990Z,1006.3
2018-06-22T04:47:09.026Z,1006.3
2018-06-22T04:48:11.051Z,1006.3
2018-06-22T04:49:13.088Z,1006.2
2018-06-22T04:50:15.128Z,1006.2
2018-06-22T04:51:17.153Z,1006.2
2018-06-22T04:52:19.592Z,1006.3
2018-06-22T04:53:21.630Z,1006.3
2018-06-22T04:54:23.659Z,1006.3
2018-06-22T04:55:25.690Z,1006.2
2018-06-22T04:56:27.723Z,1006.2
2018-06-22T04:57:29.767Z,1006.3
2018-06-22T04:58:31.799Z,1006.3
2018-06-22T04:59:34.139Z,1006.2
2018-06-22T05:00:36.458Z,1006.3
2018-06-22T05:01:38.493Z,1006.3
2018-06-22T05:02:40.527Z,1006.3
2018-06-22T05:03:42.630Z,1006.3
2018-06-22T05:04:44.600Z,1006.3
2018-06-22T05:05:46.633Z,1006.4
2018-06-22T05:06:49.048Z,1006.4
2018-06-22T05:07:51.091Z,1006.4
2018-06-22T05:08:53.120Z,1006.4
2018-06-22T05:09:55.533Z,1006.5
2018-06-22T05:10:57.573Z,1006.4
2018-06-22T05:11:59.892Z,1006.5
2018-06-22T05:13:01.931Z,1006.4
2018-06-22T05:14:03.954Z,1006.4
2018-06-22T05:15:05.988Z,1006.4
2018-06-22T05:16:08.028Z,1006.4
2018-06-22T05:17:10.037Z,1006.4
2018-06-22T05:18:12.072Z,1006.4
2018-06-22T05:19:14.391Z,1006.4
2018-06-22T05:20:16.420Z,1006.5
2018-06-22T05:21:18.762Z,1006.5
2018-06-22T05:22:21.182Z,1006.5
2018-06-22T05:23:23.206Z,1006.5
2018-06-22T05:25:16.554Z,1006.4
2018-06-22T05:26:18.597Z,1006.6
2018-06-22T05:27:20.619Z,1006.5
2018-06-22T05:30:24.855Z,1006.6
2018-06-22T05:31:26.776Z,1006.6
2018-06-22T05:32:29.145Z,1006.6
2018-06-22T05:33:31.151Z,1006.5
2018-06-22T05:34:33.521Z,1006.6
2018-06-22T05:35:35.792Z,1006.6
2018-06-22T05:36:37.782Z,1006.6
2018-06-22T05:37:39.775Z,1006.6
2018-06-22T05:38:41.762Z,1006.6
2018-06-22T05:39:43.758Z,1006.6
2018-06-22T05:40:45.737Z,1006.6
2018-06-22T05:41:48.019Z,1006.7
2018-06-22T05:42:50.023Z,1006.7
2018-06-22T05:43:52.400Z,1006.6
2018-06-22T05:44:54.662Z,1006.7
2018-06-22T05:45:56.652Z,1006.7
2018-06-22T05:46:58.649Z,1006.7
2018-06-22T05:48:00.652Z,1006.7
2018-06-22T05:49:02.647Z,1006.7
2018-06-22T05:50:04.916Z,1006.6
2018-06-22T05:51:07.300Z,1006.8
2018-06-22T05:52:09.978Z,1006.8
2018-06-22T05:53:12.251Z,1006.8
2018-06-22T05:54:14.630Z,1006.8
2018-06-22T05:55:16.635Z,1006.8
2018-06-22T05:56:18.619Z,1006.8
2018-06-22T05:57:20.616Z,1006.8
2018-06-22T05:58:22.987Z,1006.8
2018-06-22T05:59:24.985Z,1006.8
2018-06-22T06:00:26.969Z,1006.9
2018-06-22T06:01:28.966Z,1006.9
2018-06-22T06:02:30.959Z,1006.9
2018-06-22T06:03:32.979Z,1006.9
2018-06-22T06:04:34.942Z,1006.9
2018-06-22T06:05:36.943Z,1006.9
2018-06-22T06:06:39.330Z,1006.9
2018-06-22T06:07:41.312Z,1007
2018-06-22T06:08:43.297Z,1006.9
2018-06-22T06:09:45.605Z,1006.8
2018-06-22T06:10:47.595Z,1006.8
2018-06-22T06:11:49.871Z,1006.9
2018-06-22T06:12:51.858Z,1006.9
2018-06-22T06:13:54.141Z,1006.9
2018-06-22T06:14:56.134Z,1006.9
2018-06-22T06:15:58.132Z,1006.9
2018-06-22T06:17:00.118Z,1006.9
2018-06-22T06:18:02.111Z,1006.9
2018-06-22T06:19:04.100Z,1006.9
2018-06-22T06:20:06.407Z,1006.9
2018-06-22T06:21:08.357Z,1007
2018-06-22T06:22:10.634Z,1007
2018-06-22T06:23:12.630Z,1006.9
2018-06-22T06:24:14.618Z,1006.9
2018-06-22T06:25:16.611Z,1006.9
2018-06-22T06:26:18.891Z,1007
2018-06-22T06:27:21.305Z,1007.1
2018-06-22T06:28:24.518Z,1007.1
2018-06-22T06:29:26.784Z,1007.2
2018-06-22T06:30:28.781Z,1007.1
2018-06-22T06:31:31.342Z,1007.1
2018-06-22T06:32:33.326Z,1007.1
2018-06-22T06:33:35.615Z,1007.2
2018-06-22T06:34:37.599Z,1007.1
2018-06-22T06:35:39.592Z,1007.1
2018-06-22T06:36:41.865Z,1007.2
2018-06-22T06:37:43.862Z,1007.1
2018-06-22T06:38:45.861Z,1007.1
2018-06-22T06:39:48.126Z,1007.1
2018-06-22T06:40:50.118Z,1007.1
2018-06-22T06:41:52.160Z,1007.1
2018-06-22T06:42:54.468Z,1007.2
2018-06-22T06:43:56.464Z,1007.2
2018-06-22T06:44:58.444Z,1007.2
2018-06-22T06:46:00.444Z,1007.2
2018-06-22T06:47:02.733Z,1007.1
2018-06-22T06:48:05.096Z,1007.3
2018-06-22T06:49:07.103Z,1007.2
2018-06-22T06:50:09.089Z,1007.2
2018-06-22T06:51:11.073Z,1007.2
2018-06-22T06:52:13.078Z,1007.3
2018-06-22T06:53:15.354Z,1007.3
2018-06-22T06:54:17.356Z,1007.3
2018-06-22T06:55:19.347Z,1007.4
2018-06-22T06:56:22.113Z,1007.4
2018-06-22T06:57:24.388Z,1007.4
2018-06-22T06:58:26.763Z,1007.4
2018-06-22T06:59:29.050Z,1007.3
2018-06-22T07:00:31.044Z,1007.3
2018-06-22T07:01:33.046Z,1007.4
2018-06-22T07:02:35.125Z,1007.4
2018-06-22T07:03:37.042Z,1007.4
2018-06-22T07:04:39.040Z,1007.4
2018-06-22T07:05:41.044Z,1007.4
2018-06-22T07:06:43.036Z,1007.4
2018-06-22T07:07:45.312Z,1007.4
2018-06-22T07:08:47.313Z,1007.4
2018-06-22T07:09:49.305Z,1007.4
2018-06-22T07:10:51.297Z,1007.5
2018-06-22T07:11:53.289Z,1007.5
2018-06-22T07:12:55.287Z,1007.5
2018-06-22T07:13:57.276Z,1007.5
2018-06-22T07:14:59.268Z,1007.5
2018-06-22T07:16:01.548Z,1007.5
2018-06-22T07:17:03.541Z,1007.5
2018-06-22T07:18:05.932Z,1007.5
2018-06-22T07:19:07.917Z,1007.5
2018-06-22T07:20:09.924Z,1007.6
2018-06-22T07:21:12.231Z,1007.6
2018-06-22T07:22:14.500Z,1007.7
2018-06-22T07:23:16.507Z,1007.6
2018-06-22T07:24:18.789Z,1007.7
2018-06-22T07:25:20.777Z,1007.7
2018-06-22T07:26:22.778Z,1007.7
2018-06-22T07:27:24.765Z,1007.7
2018-06-22T07:28:26.756Z,1007.8
2018-06-22T07:29:28.752Z,1007.8
2018-06-22T07:30:31.112Z,1007.8
2018-06-22T07:31:33.065Z,1007.8
2018-06-22T07:32:35.059Z,1007.8
2018-06-22T07:33:37.056Z,1007.8
2018-06-22T07:34:39.043Z,1007.8
2018-06-22T07:35:41.052Z,1007.9
2018-06-22T07:36:43.041Z,1007.9
2018-06-22T07:37:45.039Z,1007.8
2018-06-22T07:38:47.034Z,1007.8
2018-06-22T07:39:49.077Z,1007.8
2018-06-22T07:40:51.070Z,1007.8
2018-06-22T07:41:53.064Z,1007.8
2018-06-22T07:42:55.357Z,1007.8
2018-06-22T07:43:57.390Z,1007.8
2018-06-22T07:44:59.804Z,1007.8
2018-06-22T07:46:02.104Z,1007.9
2018-06-22T07:47:04.100Z,1007.9
2018-06-22T07:48:06.095Z,1007.9
2018-06-22T07:49:08.372Z,1007.8
2018-06-22T07:50:10.378Z,1007.8
2018-06-22T07:51:12.363Z,1007.8
2018-06-22T07:52:14.359Z,1007.9
2018-06-22T07:53:16.372Z,1007.8
2018-06-22T07:54:18.366Z,1007.9
2018-06-22T07:55:20.369Z,1007.9
2018-06-22T07:56:22.654Z,1007.9
2018-06-22T07:57:24.648Z,1007.9
2018-06-22T07:58:26.936Z,1007.9
2018-06-22T07:59:28.934Z,1007.9
2018-06-22T08:00:30.940Z,1007.9
2018-06-22T08:01:32.944Z,1007.9
2018-06-22T08:02:34.926Z,1007.9
2018-06-22T08:03:36.929Z,1007.8
2018-06-22T08:04:39.212Z,1007.8
2018-06-22T08:05:41.210Z,1007.9
2018-06-22T08:06:43.215Z,1007.9
2018-06-22T08:07:45.492Z,1007.9
2018-06-22T08:08:47.486Z,1007.9
2018-06-22T08:09:49.483Z,1008
2018-06-22T08:10:51.481Z,1008
2018-06-22T08:11:53.487Z,1007.9
2018-06-22T08:12:55.489Z,1007.9
2018-06-22T08:13:57.485Z,1008
2018-06-22T08:14:59.485Z,1008
2018-06-22T08:16:01.818Z,1008
2018-06-22T08:17:04.134Z,1007.9
2018-06-22T08:18:06.125Z,1007.9
2018-06-22T08:19:08.153Z,1008
2018-06-22T08:20:10.220Z,1008
2018-06-22T08:21:12.235Z,1008
2018-06-22T08:22:14.235Z,1008
2018-06-22T08:23:16.227Z,1008
2018-06-22T08:24:18.325Z,1008
2018-06-22T08:25:20.323Z,1008.2
2018-06-22T08:26:22.638Z,1008.2
2018-06-22T08:27:24.641Z,1008.2
2018-06-22T08:28:26.642Z,1008.2
2018-06-22T08:29:28.641Z,1008.3
2018-06-22T08:30:30.643Z,1008.3
2018-06-22T08:31:32.647Z,1008.2
2018-06-22T08:32:34.639Z,1008.2
2018-06-22T08:33:36.935Z,1008.2
2018-06-22T08:34:38.922Z,1008.3
2018-06-22T08:35:40.936Z,1008.3
2018-06-22T08:36:42.930Z,1008.4
2018-06-22T08:37:45.204Z,1008.3
2018-06-22T08:38:47.205Z,1008.3
2018-06-22T08:39:49.203Z,1008.3
2018-06-22T08:40:51.192Z,1008.4
2018-06-22T08:41:53.260Z,1008.3
2018-06-22T08:42:55.193Z,1008.4
2018-06-22T08:43:57.235Z,1008.3
2018-06-22T08:44:59.175Z,1008.4
2018-06-22T08:46:01.168Z,1008.3
2018-06-22T08:47:03.174Z,1008.4
2018-06-22T08:48:05.474Z,1008.5
2018-06-22T08:49:07.465Z,1008.5
2018-06-22T08:50:10.135Z,1008.5
2018-06-22T08:51:12.125Z,1008.5
2018-06-22T08:52:14.132Z,1008.5
2018-06-22T08:53:16.810Z,1008.6
2018-06-22T08:54:18.801Z,1008.6
2018-06-22T08:55:20.814Z,1008.6
2018-06-22T08:56:22.822Z,1008.5
2018-06-22T08:57:25.093Z,1008.5
2018-06-22T08:58:27.102Z,1008.6
2018-06-22T08:59:29.096Z,1008.6
2018-06-22T09:00:31.099Z,1008.6
2018-06-22T09:01:33.379Z,1008.6
2018-06-22T09:02:35.683Z,1008.5
2018-06-22T09:03:37.682Z,1008.6
2018-06-22T09:04:39.972Z,1008.6
2018-06-22T09:05:42.243Z,1008.6
2018-06-22T09:06:44.522Z,1008.6
2018-06-22T09:07:46.518Z,1008.6
2018-06-22T09:08:48.902Z,1008.6
2018-06-22T09:10:03.629Z,1008.6
2018-06-22T09:11:05.626Z,1008.7
2018-06-22T09:12:07.626Z,1008.7
2018-06-22T09:13:09.630Z,1008.7
2018-06-22T09:14:12.183Z,1008.7
2018-06-22T09:15:14.186Z,1008.7
2018-06-22T09:16:16.843Z,1008.6
2018-06-22T09:17:18.846Z,1008.6
2018-06-22T09:18:20.839Z,1008.6
2018-06-22T09:19:22.832Z,1008.6
2018-06-22T09:20:25.118Z,1008.6
2018-06-22T09:21:27.110Z,1008.6
2018-06-22T09:22:29.392Z,1008.6
2018-06-22T09:23:31.395Z,1008.6
2018-06-22T09:24:33.390Z,1008.6
2018-06-22T09:25:35.778Z,1008.6
2018-06-22T09:26:37.771Z,1008.6
2018-06-22T09:27:39.762Z,1008.5
2018-06-22T09:28:41.756Z,1008.5
2018-06-22T09:29:44.031Z,1008.5
2018-06-22T09:30:46.034Z,1008.5
2018-06-22T09:31:48.026Z,1008.6
2018-06-22T09:32:50.702Z,1008.6
2018-06-22T09:33:52.990Z,1008.6
2018-06-22T09:34:54.975Z,1008.5
2018-06-22T09:35:56.976Z,1008.6
2018-06-22T09:36:58.981Z,1008.7
2018-06-22T09:38:00.974Z,1008.6
2018-06-22T09:39:02.977Z,1008.7
2018-06-22T09:40:05.259Z,1008.7
2018-06-22T09:41:07.270Z,1008.6
2018-06-22T09:42:09.260Z,1008.6
2018-06-22T09:43:11.638Z,1008.6
2018-06-22T09:44:13.651Z,1008.6
2018-06-22T09:45:16.030Z,1008.6
2018-06-22T09:46:18.033Z,1008.6
2018-06-22T09:47:20.412Z,1008.7
2018-06-22T09:48:22.448Z,1008.6
2018-06-22T09:49:25.152Z,1008.6
2018-06-22T09:50:27.145Z,1008.6
2018-06-22T09:51:29.154Z,1008.6
2018-06-22T09:52:31.159Z,1008.6
2018-06-22T09:53:33.436Z,1008.7
2018-06-22T09:54:35.441Z,1008.6
2018-06-22T09:55:37.855Z,1008.6
2018-06-22T09:56:39.877Z,1008.6
2018-06-22T09:57:41.870Z,1008.6
2018-06-22T09:58:44.163Z,1008.6
2018-06-22T09:59:46.166Z,1008.7
2018-06-22T10:00:48.170Z,1008.7
2018-06-22T10:01:50.170Z,1008.8
2018-06-22T10:02:52.168Z,1008.8
2018-06-22T10:03:54.181Z,1008.7
2018-06-22T10:04:56.198Z,1008.8
2018-06-22T10:05:58.238Z,1008.8
2018-06-22T10:07:00.192Z,1008.8
2018-06-22T10:08:02.208Z,1008.8
2018-06-22T10:09:04.200Z,1008.8
2018-06-22T10:10:06.205Z,1008.8
2018-06-22T10:11:08.212Z,1008.8
2018-06-22T10:12:10.230Z,1008.8
2018-06-22T10:13:12.240Z,1008.8
2018-06-22T10:14:14.536Z,1008.8
2018-06-22T10:15:16.523Z,1008.9
2018-06-22T10:16:18.536Z,1008.8
2018-06-22T10:17:20.535Z,1008.8
2018-06-22T10:18:22.555Z,1008.8
2018-06-22T10:19:24.836Z,1008.8
2018-06-22T10:20:27.618Z,1008.8
2018-06-22T10:21:29.626Z,1008.8
2018-06-22T10:22:31.911Z,1008.8
2018-06-22T10:23:33.915Z,1008.8
2018-06-22T10:24:36.316Z,1008.8
2018-06-22T10:25:38.313Z,1008.8
2018-06-22T10:26:40.601Z,1008.8
2018-06-22T10:27:42.601Z,1008.8
2018-06-22T10:28:44.882Z,1009
2018-06-22T10:29:46.893Z,1008.9
2018-06-22T10:30:48.893Z,1009
2018-06-22T10:31:51.184Z,1009
2018-06-22T10:32:53.181Z,1009
2018-06-22T10:33:55.205Z,1008.9
2018-06-22T10:34:57.186Z,1008.8
2018-06-22T10:35:59.196Z,1008.8
2018-06-22T10:37:01.198Z,1008.8
2018-06-22T10:38:03.495Z,1008.9
2018-06-22T10:39:05.511Z,1008.9
2018-06-22T10:40:07.510Z,1008.9
2018-06-22T10:41:09.507Z,1008.9
2018-06-22T10:42:11.516Z,1009
2018-06-22T10:43:13.531Z,1008.8
2018-06-22T10:44:15.548Z,1008.9
2018-06-22T10:45:17.558Z,1008.9
2018-06-22T10:46:19.562Z,1008.9
2018-06-22T10:47:21.564Z,1008.9
2018-06-22T10:48:23.588Z,1008.9
2018-06-22T10:49:25.871Z,1008.8
2018-06-22T10:50:28.257Z,1008.9
2018-06-22T10:51:30.291Z,1008.9
2018-06-22T10:52:33.097Z,1008.9
2018-06-22T10:53:35.105Z,1008.9
2018-06-22T10:54:37.113Z,1008.9
2018-06-22T10:55:39.132Z,1009
2018-06-22T10:56:41.138Z,1008.9
2018-06-22T10:57:43.414Z,1008.9
2018-06-22T10:58:45.707Z,1009
2018-06-22T10:59:47.857Z,1009
2018-06-22T11:00:49.717Z,1009
2018-06-22T11:01:51.715Z,1009
2018-06-22T11:02:53.999Z,1009.1
2018-06-22T11:03:56.029Z,1009
2018-06-22T11:04:58.021Z,1009
2018-06-22T11:06:00.039Z,1009
2018-06-22T11:07:02.055Z,1009.1
2018-06-22T11:08:04.067Z,1009.1
2018-06-22T11:09:06.076Z,1009
2018-06-22T11:10:08.366Z,1009
2018-06-22T11:11:10.368Z,1009
2018-06-22T11:12:12.393Z,1009.1
2018-06-22T11:13:14.701Z,1009.1
2018-06-22T11:14:16.713Z,1009.1
2018-06-22T11:15:18.721Z,1009.1
2018-06-22T11:16:21.072Z,1009.1
2018-06-22T11:17:23.077Z,1009.2
2018-06-22T11:18:25.480Z,1009.2
2018-06-22T11:19:27.907Z,1009.2
2018-06-22T11:20:30.212Z,1009.1
2018-06-22T11:21:32.512Z,1009.1
2018-06-22T11:22:34.809Z,1009.1
2018-06-22T11:23:36.837Z,1009.1
2018-06-22T11:24:38.848Z,1009
2018-06-22T11:25:40.843Z,1009
2018-06-22T11:26:42.865Z,1009.1
2018-06-22T11:27:44.899Z,1009.2
2018-06-22T11:28:46.923Z,1009.1
2018-06-22T11:29:48.934Z,1009.1
2018-06-22T11:30:50.977Z,1009
2018-06-22T11:31:52.951Z,1009
2018-06-22T11:32:55.343Z,1009.1
2018-06-22T11:33:57.351Z,1009.1
2018-06-22T11:34:59.392Z,1009.1
2018-06-22T11:36:01.448Z,1009.1
2018-06-22T11:37:03.484Z,1009.1
2018-06-22T11:38:05.503Z,1009.2
2018-06-22T11:39:07.542Z,1009.2
2018-06-22T11:40:09.579Z,1009.1
2018-06-22T11:41:11.647Z,1009.1
2018-06-22T11:42:13.652Z,1009.1
2018-06-22T11:43:15.671Z,1009.1
2018-06-22T11:44:17.720Z,1009.1
2018-06-22T11:45:19.724Z,1009.1
2018-06-22T11:46:21.758Z,1009.1
2018-06-22T11:47:24.106Z,1009.1
2018-06-22T11:48:26.124Z,1009
2018-06-22T11:49:28.138Z,1009.1
2018-06-22T11:50:30.202Z,1009.1
2018-06-22T11:51:32.286Z,1009.2
2018-06-22T11:52:34.324Z,1009.1
2018-06-22T11:53:36.660Z,1009.1
2018-06-22T11:54:38.676Z,1009.1
2018-06-22T11:55:40.687Z,1009.1
2018-06-22T11:56:43.050Z,1009.1
2018-06-22T11:57:45.113Z,1009
2018-06-22T11:58:47.139Z,1009.1
2018-06-22T11:59:49.173Z,1009
2018-06-22T12:00:51.488Z,1009.1
2018-06-22T12:01:53.524Z,1009
2018-06-22T12:02:55.816Z,1009.2
2018-06-22T12:03:57.829Z,1009.1
2018-06-22T12:04:59.839Z,1009
2018-06-22T12:06:02.270Z,1009.1
2018-06-22T12:07:04.553Z,1009.1
2018-06-22T12:08:06.571Z,1009.1
2018-06-22T12:09:08.594Z,1009
2018-06-22T12:10:10.619Z,1009.1
2018-06-22T12:11:12.616Z,1009.1
2018-06-22T12:12:14.642Z,1009.1
2018-06-22T12:13:16.660Z,1009.1
2018-06-22T12:14:18.670Z,1009.1
2018-06-22T12:15:20.955Z,1009.1
2018-06-22T12:16:22.970Z,1009
2018-06-22T12:17:24.977Z,1009.1
2018-06-22T12:18:27.000Z,1009
2018-06-22T12:19:29.002Z,1009
2018-06-22T12:20:31.030Z,1009
2018-06-22T12:21:33.034Z,1009.1
2018-06-22T12:22:35.055Z,1009.1
2018-06-22T12:23:37.056Z,1009
2018-06-22T12:24:39.055Z,1009.1
2018-06-22T12:25:41.393Z,1009
2018-06-22T12:26:43.415Z,1009
2018-06-22T12:27:45.457Z,1009
2018-06-22T12:28:47.860Z,1009.1
2018-06-22T12:29:49.876Z,1009
2018-06-22T12:30:51.905Z,1009.1
2018-06-22T12:31:54.197Z,1009.1
2018-06-22T12:32:56.253Z,1009.1
2018-06-22T12:33:58.284Z,1009
2018-06-22T12:35:00.332Z,1009
2018-06-22T12:36:02.369Z,1009.1
2018-06-22T12:37:04.445Z,1009
2018-06-22T12:38:06.473Z,1009
2018-06-22T12:39:08.494Z,1009.1
2018-06-22T12:40:10.515Z,1009
2018-06-22T12:41:12.529Z,1009
2018-06-22T12:42:14.553Z,1009.1
2018-06-22T12:43:16.579Z,1009
2018-06-22T12:44:18.580Z,1009.1
2018-06-22T12:45:20.600Z,1009
2018-06-22T12:46:22.634Z,1009.1
2018-06-22T12:47:24.658Z,1009
2018-06-22T12:48:26.959Z,1009.1
2018-06-22T12:49:29.013Z,1009.1
2018-06-22T12:50:31.458Z,1009.1
2018-06-22T12:51:33.892Z,1009.1
2018-06-22T12:52:35.895Z,1009
2018-06-22T12:53:37.928Z,1009.2
2018-06-22T12:54:39.929Z,1009
2018-06-22T12:55:41.930Z,1009.1
2018-06-22T12:56:43.948Z,1009.1
2018-06-22T12:57:46.257Z,1009
2018-06-22T12:58:48.256Z,1009.1
2018-06-22T12:59:50.269Z,1009.1
2018-06-22T13:00:52.288Z,1009.1
2018-06-22T13:01:54.294Z,1009.1
2018-06-22T13:02:56.305Z,1009.1